Roslyn, South Dakota
Current Conditions -  °F | °C
As of 7:53 PM on Thursday 18 Dec 2014 (Local Time) from KATY Reporting Station
Haze Haze  
Wind Chill: -10°   Ceiling: 600
Heat Index: -4°   Visibility: 4mi
Dew Point: -6°   Wind: 10mph
Humidity: 88%   Direction: 170°S
Pressure: 30.12"   Gusts: NA
Location:  45.5°N, 97.49°W
Report Text: KATY 190153Z AUTO 17009KT 4SM BR OVC006 M04/M06 A3012 RMK AO2 SLP230 T10441061
Loading
Personal Weather Stations






























Interactive Weather Map New forecast layout! Learn more

10-Day Weather Forecast

Advertisements
Track Severe Weather on mobile